首页
METAR-TAF:

METAR-TAF

机场 :

Hilton Head Island, 南卡罗来纳州, 美国

Hilton Head Airport

纬度: 32-13N, 经度: 080-42W, 海拔: 6米

当前天气观测

该预报发布于45分钟前的13:50 UTC
风速8节,风向北转东北
温度 20°C
湿度 78%
气压 1025 hPa
能見度: 16.1公里
天空无云

METAR: KHXD 221350Z 03008KT 10SM SKC 20/16 A3028

时间: 10:35 (14:35 UTC)


TAF: 丢失

超过4000个机场的气象观测和天气预报(METAR&TAF报告)。

可查询的气象台以黄色和红色小点在地图上表示。

将鼠标移到小点上方,可查看气象台名称。

然后点击查看天气观测和预报。

如需切换地图:点击带黑十字的绿色按钮放大地图;点击带横线的绿色按钮缩小地图;或者点击绿色箭头查看邻近地区的地图。


METAR-TAF: